createdAt,value
2023-05-14T00:00:28.281Z,16.22
2023-05-14T00:02:58.678Z,16.18
2023-05-14T00:05:29.430Z,16.14
2023-05-14T00:07:59.853Z,16.10
2023-05-14T00:10:32.690Z,15.97
2023-05-14T00:13:03.948Z,15.95
2023-05-14T00:15:34.621Z,15.92
2023-05-14T00:18:05.240Z,15.72
2023-05-14T00:20:35.890Z,15.85
2023-05-14T00:23:12.493Z,15.75
2023-05-14T00:25:46.422Z,15.67
2023-05-14T00:28:16.724Z,15.64
2023-05-14T00:30:47.234Z,15.56
2023-05-14T00:33:19.605Z,15.55
2023-05-14T00:35:50.148Z,15.51
2023-05-14T00:38:24.373Z,15.48
2023-05-14T00:40:57.757Z,15.48
2023-05-14T00:43:28.493Z,15.28
2023-05-14T00:45:59.184Z,15.34
2023-05-14T00:48:32.169Z,15.33
2023-05-14T00:51:03.031Z,15.25
2023-05-14T00:53:33.912Z,15.23
2023-05-14T00:56:08.627Z,15.21
2023-05-14T00:58:39.194Z,15.10
2023-05-14T01:01:12.475Z,15.15
2023-05-14T01:03:43.165Z,15.07
2023-05-14T01:06:20.695Z,15.05
2023-05-14T01:09:00.077Z,14.97
2023-05-14T01:11:39.764Z,14.94
2023-05-14T01:14:23.053Z,14.80
2023-05-14T01:16:58.754Z,14.80
2023-05-14T01:19:49.181Z,14.63
2023-05-14T01:22:22.452Z,14.57
2023-05-14T01:24:52.905Z,14.42
2023-05-14T01:27:33.183Z,14.45
2023-05-14T01:30:13.371Z,14.44
2023-05-14T01:32:45.110Z,14.35
2023-05-14T01:35:16.176Z,14.41
2023-05-14T01:37:50.883Z,14.33
2023-05-14T01:40:22.601Z,14.35
2023-05-14T01:42:54.476Z,14.30
2023-05-14T01:45:25.629Z,14.20
2023-05-14T01:47:56.880Z,14.16
2023-05-14T01:50:27.003Z,14.15
2023-05-14T01:53:02.937Z,14.09
2023-05-14T01:55:33.329Z,13.86
2023-05-14T01:58:03.838Z,14.04
2023-05-14T02:00:35.050Z,13.95
2023-05-14T02:03:05.347Z,13.93
2023-05-14T02:05:38.727Z,13.82
2023-05-14T02:08:11.942Z,13.74
2023-05-14T02:10:42.360Z,13.77
2023-05-14T02:13:12.685Z,13.82
2023-05-14T02:15:43.001Z,13.85
2023-05-14T02:18:13.471Z,13.86
2023-05-14T02:20:46.692Z,13.84
2023-05-14T02:23:25.659Z,13.75
2023-05-14T02:26:01.820Z,13.79
2023-05-14T02:28:32.811Z,13.83
2023-05-14T02:31:03.484Z,13.58
2023-05-14T02:33:34.090Z,13.82
2023-05-14T02:36:04.439Z,13.80
2023-05-14T02:38:40.982Z,13.70
2023-05-14T02:41:11.588Z,13.60
2023-05-14T02:43:41.997Z,13.62
2023-05-14T02:46:12.437Z,13.55
2023-05-14T02:48:42.854Z,13.30
2023-05-14T02:51:13.545Z,13.50
2023-05-14T02:53:48.967Z,13.46
2023-05-14T02:56:19.752Z,13.48
2023-05-14T02:58:50.190Z,13.49
2023-05-14T03:01:21.304Z,13.41
2023-05-14T03:03:52.832Z,13.40
2023-05-14T03:06:22.768Z,13.48
2023-05-14T03:08:55.817Z,13.29
2023-05-14T03:11:26.598Z,13.41
2023-05-14T03:13:57.052Z,13.41
2023-05-14T03:16:27.324Z,13.32
2023-05-14T03:18:57.913Z,13.45
2023-05-14T03:21:28.192Z,13.41
2023-05-14T03:24:04.231Z,13.38
2023-05-14T03:26:34.400Z,13.35
2023-05-14T03:29:05.606Z,13.35
2023-05-14T03:31:35.840Z,13.30
2023-05-14T03:34:06.211Z,13.24
2023-05-14T03:36:38.123Z,13.36
2023-05-14T03:39:11.358Z,13.35
2023-05-14T03:41:41.954Z,13.28
2023-05-14T03:44:12.380Z,13.38
2023-05-14T03:46:42.631Z,13.41
2023-05-14T03:49:13.009Z,13.40
2023-05-14T03:51:43.783Z,13.43
2023-05-14T03:54:16.578Z,13.24
2023-05-14T03:56:49.256Z,13.45
2023-05-14T03:59:19.474Z,13.45
2023-05-14T04:01:49.681Z,13.45
2023-05-14T04:04:19.996Z,13.19
2023-05-14T04:06:50.265Z,13.49
2023-05-14T04:09:23.692Z,13.50
2023-05-14T04:11:55.930Z,13.50
2023-05-14T04:14:26.418Z,13.57
2023-05-14T04:16:57.464Z,13.55
2023-05-14T04:19:28.745Z,13.38
2023-05-14T04:21:58.924Z,13.48
2023-05-14T04:24:31.828Z,13.49
2023-05-14T04:27:03.604Z,13.47
2023-05-14T04:29:34.262Z,13.44
2023-05-14T04:32:05.193Z,13.48
2023-05-14T04:34:35.118Z,13.39
2023-05-14T04:37:05.750Z,13.27
2023-05-14T04:39:38.624Z,13.31
2023-05-14T04:42:10.128Z,13.13
2023-05-14T04:44:40.814Z,13.26
2023-05-14T04:47:10.993Z,13.29
2023-05-14T04:49:41.298Z,13.23
2023-05-14T04:52:11.475Z,13.14
2023-05-14T04:54:47.237Z,13.13
2023-05-14T04:57:18.202Z,13.14
2023-05-14T04:59:48.590Z,13.04
2023-05-14T05:02:18.925Z,13.13
2023-05-14T05:04:49.671Z,13.17
2023-05-14T05:07:20.047Z,13.16
2023-05-14T05:09:53.171Z,13.18
2023-05-14T05:12:24.780Z,13.15
2023-05-14T05:14:55.004Z,13.08
2023-05-14T05:17:25.467Z,13.22
2023-05-14T05:19:55.696Z,13.18
2023-05-14T05:22:26.461Z,13.14
2023-05-14T05:25:01.344Z,13.14
2023-05-14T05:27:31.604Z,13.22
2023-05-14T05:30:01.845Z,13.21
2023-05-14T05:32:32.412Z,13.17
2023-05-14T05:35:02.838Z,13.28
2023-05-14T05:37:33.583Z,13.30
2023-05-14T05:40:07.332Z,13.30
2023-05-14T05:42:37.591Z,13.28
2023-05-14T05:45:09.535Z,13.32
2023-05-14T05:47:40.075Z,13.25
2023-05-14T05:50:12.465Z,13.27
2023-05-14T05:52:42.802Z,13.30
2023-05-14T05:55:19.660Z,13.31
2023-05-14T05:57:50.097Z,13.25
2023-05-14T06:00:21.502Z,13.27
2023-05-14T06:02:52.601Z,13.29
2023-05-14T06:05:22.856Z,13.21
2023-05-14T06:07:53.771Z,13.27
2023-05-14T06:10:27.785Z,13.28
2023-05-14T06:13:00.423Z,13.28
2023-05-14T06:15:30.986Z,13.36
2023-05-14T06:18:01.576Z,13.48
2023-05-14T06:20:32.993Z,13.57
2023-05-14T06:23:03.917Z,13.53
2023-05-14T06:25:37.228Z,13.59
2023-05-14T06:28:07.887Z,13.57
2023-05-14T06:30:38.073Z,13.56
2023-05-14T06:33:08.605Z,13.52
2023-05-14T06:35:41.683Z,13.59
2023-05-14T06:38:12.564Z,13.59
2023-05-14T06:40:45.841Z,13.60
2023-05-14T06:43:16.057Z,13.62
2023-05-14T06:45:46.322Z,13.58
2023-05-14T06:48:27.556Z,13.60
2023-05-14T06:50:58.659Z,13.65
2023-05-14T06:53:28.888Z,13.62
2023-05-14T06:56:02.182Z,13.61
2023-05-14T06:58:32.537Z,13.63
2023-05-14T07:01:03.866Z,13.61
2023-05-14T07:03:34.370Z,13.55
2023-05-14T07:06:04.918Z,13.50
2023-05-14T07:08:35.914Z,13.42
2023-05-14T07:11:09.063Z,13.40
2023-05-14T07:13:39.532Z,13.52
2023-05-14T07:16:11.411Z,13.58
2023-05-14T07:18:42.354Z,13.49
2023-05-14T07:21:12.763Z,13.65
2023-05-14T07:23:42.888Z,13.71
2023-05-14T07:26:15.802Z,13.69
2023-05-14T07:28:49.121Z,13.70
2023-05-14T07:31:19.855Z,13.70
2023-05-14T07:33:50.638Z,13.79
2023-05-14T07:36:21.399Z,13.82
2023-05-14T07:38:51.884Z,13.87
2023-05-14T07:41:27.813Z,13.79
2023-05-14T07:43:58.393Z,13.84
2023-05-14T07:46:29.317Z,13.85
2023-05-14T07:48:59.488Z,13.87
2023-05-14T07:51:30.684Z,14.00
2023-05-14T07:54:01.017Z,13.79
2023-05-14T07:56:34.780Z,13.86
2023-05-14T07:59:05.966Z,13.96
2023-05-14T08:01:39.083Z,14.18
2023-05-14T08:04:12.054Z,14.25
2023-05-14T08:06:42.636Z,14.33
2023-05-14T08:09:20.536Z,14.39
2023-05-14T08:11:56.823Z,14.49
2023-05-14T08:14:30.013Z,14.52
2023-05-14T08:17:00.784Z,14.40
2023-05-14T08:19:33.700Z,14.56
2023-05-14T08:22:04.505Z,14.40
2023-05-14T08:24:38.850Z,14.53
2023-05-14T08:27:12.367Z,14.47
2023-05-14T08:29:42.679Z,14.60
2023-05-14T08:32:22.884Z,14.56
2023-05-14T08:34:54.784Z,14.55
2023-05-14T08:37:25.344Z,14.58
2023-05-14T08:39:57.136Z,14.63
2023-05-14T08:42:31.775Z,14.54
2023-05-14T08:45:04.851Z,14.59
2023-05-14T08:47:37.492Z,14.78
2023-05-14T08:50:09.955Z,14.84
2023-05-14T08:52:41.250Z,14.89
2023-05-14T08:55:12.889Z,14.76
2023-05-14T08:57:48.845Z,14.97
2023-05-14T09:00:19.775Z,15.01
2023-05-14T09:02:51.102Z,15.03
2023-05-14T09:05:22.653Z,14.99
2023-05-14T09:07:53.305Z,15.05
2023-05-14T09:10:24.261Z,15.03
2023-05-14T09:12:57.462Z,15.12
2023-05-14T09:15:31.091Z,15.02
2023-05-14T09:18:01.416Z,15.25
2023-05-14T09:20:32.026Z,15.29
2023-05-14T09:23:05.403Z,15.39
2023-05-14T09:25:36.264Z,15.48
2023-05-14T09:28:12.527Z,15.60
2023-05-14T09:30:42.962Z,15.73
2023-05-14T09:33:13.732Z,15.88
2023-05-14T09:35:44.816Z,15.99
2023-05-14T09:38:14.999Z,16.11
2023-05-14T09:40:45.397Z,16.24
2023-05-14T09:43:19.170Z,16.19
2023-05-14T09:45:50.345Z,16.39
2023-05-14T09:48:20.991Z,16.65
2023-05-14T09:50:52.592Z,16.75
2023-05-14T09:53:22.936Z,16.76
2023-05-14T09:55:53.141Z,16.76
2023-05-14T09:58:27.104Z,16.87
2023-05-14T10:01:02.969Z,16.79
2023-05-14T10:03:34.346Z,17.06
2023-05-14T10:06:13.176Z,17.24
2023-05-14T10:08:50.675Z,17.38
2023-05-14T10:11:25.595Z,17.62
2023-05-14T10:14:06.045Z,17.79
2023-05-14T10:16:41.044Z,17.80
2023-05-14T10:19:13.623Z,17.84
2023-05-14T10:21:47.619Z,17.77
2023-05-14T10:24:18.814Z,17.69
2023-05-14T10:26:50.064Z,17.67
2023-05-14T10:29:23.089Z,17.64
2023-05-14T10:31:54.515Z,17.64
2023-05-14T10:34:41.388Z,17.65
2023-05-14T10:37:13.894Z,17.68
2023-05-14T10:39:54.925Z,17.59
2023-05-14T10:42:27.689Z,17.68
2023-05-14T10:45:06.082Z,17.71
2023-05-14T10:47:38.079Z,17.56
2023-05-14T10:50:11.564Z,17.67
2023-05-14T10:52:43.921Z,17.71
2023-05-14T10:55:17.940Z,17.81
2023-05-14T10:57:49.309Z,17.89
2023-05-14T11:00:24.969Z,18.07
2023-05-14T11:02:59.939Z,18.24
2023-05-14T11:05:30.274Z,18.30
2023-05-14T11:08:01.674Z,18.46
2023-05-14T11:10:34.702Z,18.61
2023-05-14T11:13:07.522Z,18.53
2023-05-14T11:15:47.403Z,18.76
2023-05-14T11:18:29.002Z,19.12
2023-05-14T11:21:02.940Z,19.14
2023-05-14T11:23:33.596Z,19.37
2023-05-14T11:26:03.991Z,19.10
2023-05-14T11:28:34.803Z,19.37
2023-05-14T11:31:08.941Z,19.60
2023-05-14T11:33:39.477Z,19.63
2023-05-14T11:36:11.072Z,19.94
2023-05-14T11:38:52.880Z,20.04
2023-05-14T11:41:24.048Z,20.24
2023-05-14T11:43:54.497Z,20.23
2023-05-14T11:46:28.816Z,20.32
2023-05-14T11:48:59.074Z,20.31
2023-05-14T11:51:30.572Z,20.44
2023-05-14T11:54:01.258Z,20.62
2023-05-14T11:56:31.439Z,20.75
2023-05-14T11:59:02.394Z,20.77
2023-05-14T12:01:38.794Z,20.87
2023-05-14T12:04:09.953Z,20.80
2023-05-14T12:06:42.881Z,20.78
2023-05-14T12:09:16.656Z,20.52
2023-05-14T12:11:48.205Z,20.59
2023-05-14T12:14:20.719Z,20.37
2023-05-14T12:16:54.448Z,19.97
2023-05-14T12:19:26.288Z,19.76
2023-05-14T12:21:57.040Z,19.72
2023-05-14T12:24:29.703Z,19.66
2023-05-14T12:27:00.793Z,19.47
2023-05-14T12:29:37.318Z,19.45
2023-05-14T12:32:14.333Z,19.34
2023-05-14T12:34:44.680Z,19.29
2023-05-14T12:37:15.268Z,19.29
2023-05-14T12:39:45.500Z,19.26
2023-05-14T12:42:16.325Z,19.36
2023-05-14T12:44:46.429Z,19.39
2023-05-14T12:47:22.645Z,19.44
2023-05-14T12:49:53.727Z,19.46
2023-05-14T12:52:36.773Z,19.51
2023-05-14T12:55:09.947Z,19.52
2023-05-14T12:57:40.738Z,19.55
2023-05-14T13:00:21.265Z,19.60
2023-05-14T13:02:55.679Z,19.70
2023-05-14T13:05:26.500Z,19.79
2023-05-14T13:07:56.746Z,19.78
2023-05-14T13:10:27.022Z,19.78
2023-05-14T13:13:00.642Z,19.77
2023-05-14T13:15:33.896Z,20.01
2023-05-14T13:18:07.098Z,20.01
2023-05-14T13:20:38.093Z,20.20
2023-05-14T13:23:08.003Z,20.31
2023-05-14T13:25:41.536Z,20.34
2023-05-14T13:28:12.211Z,20.55
2023-05-14T13:30:42.682Z,20.75
2023-05-14T13:33:16.427Z,21.01
2023-05-14T13:35:47.451Z,21.36
2023-05-14T13:38:17.895Z,21.47
2023-05-14T13:40:48.646Z,21.64
2023-05-14T13:43:19.595Z,21.64
2023-05-14T13:45:49.965Z,21.88
2023-05-14T13:48:22.785Z,21.83
2023-05-14T13:50:53.245Z,21.96
2023-05-14T13:53:24.774Z,22.08
2023-05-14T13:55:59.022Z,22.11
2023-05-14T13:58:29.866Z,21.98
2023-05-14T14:01:00.158Z,22.15
2023-05-14T14:03:33.460Z,22.11
2023-05-14T14:06:04.018Z,22.05
2023-05-14T14:08:34.316Z,22.04
2023-05-14T14:11:05.071Z,21.98
2023-05-14T14:13:35.227Z,21.91
2023-05-14T14:16:06.575Z,21.92
2023-05-14T14:18:40.498Z,22.02
2023-05-14T14:21:11.081Z,22.11
2023-05-14T14:23:42.344Z,21.82
2023-05-14T14:26:12.800Z,22.01
2023-05-14T14:28:43.685Z,21.83
2023-05-14T14:31:16.826Z,21.75
2023-05-14T14:33:51.486Z,21.61
2023-05-14T14:36:22.278Z,21.58
2023-05-14T14:38:52.505Z,21.29
2023-05-14T14:41:23.244Z,21.37
2023-05-14T14:43:53.759Z,21.43
2023-05-14T14:46:26.552Z,21.36
2023-05-14T14:49:02.299Z,21.52
2023-05-14T14:51:33.325Z,21.55
2023-05-14T14:54:07.703Z,21.33
2023-05-14T14:56:38.500Z,21.38
2023-05-14T14:59:08.527Z,21.30
2023-05-14T15:01:41.202Z,21.19
2023-05-14T15:04:14.330Z,21.05
2023-05-14T15:06:44.659Z,20.76
2023-05-14T15:09:14.843Z,20.79
2023-05-14T15:11:45.367Z,20.67
2023-05-14T15:14:16.134Z,20.62
2023-05-14T15:16:51.043Z,20.43
2023-05-14T15:19:24.420Z,20.51
2023-05-14T15:21:55.132Z,20.41
2023-05-14T15:24:26.936Z,20.38
2023-05-14T15:26:57.209Z,20.28
2023-05-14T15:29:27.607Z,20.44
2023-05-14T15:31:58.914Z,20.32
2023-05-14T15:34:32.299Z,20.30
2023-05-14T15:37:02.900Z,20.50
2023-05-14T15:39:33.748Z,20.42
2023-05-14T15:42:06.694Z,20.49
2023-05-14T15:44:39.039Z,20.32
2023-05-14T15:47:09.886Z,20.49
2023-05-14T15:49:42.644Z,20.45
2023-05-14T15:52:12.880Z,20.31
2023-05-14T15:54:43.845Z,20.20
2023-05-14T15:57:14.443Z,20.04
2023-05-14T15:59:45.321Z,19.95
2023-05-14T16:02:16.075Z,19.90
2023-05-14T16:04:50.004Z,19.83
2023-05-14T16:07:21.022Z,19.81
2023-05-14T16:09:52.444Z,19.80
2023-05-14T16:12:22.896Z,19.79
2023-05-14T16:14:57.320Z,19.80
2023-05-14T16:17:27.585Z,19.78
2023-05-14T16:20:01.429Z,19.86
2023-05-14T16:22:33.671Z,19.62
2023-05-14T16:25:05.267Z,19.72
2023-05-14T16:27:36.855Z,19.93
2023-05-14T16:30:08.008Z,19.85
2023-05-14T16:32:38.650Z,20.01
2023-05-14T16:35:13.038Z,20.03
2023-05-14T16:37:43.206Z,19.88
2023-05-14T16:40:16.560Z,19.92
2023-05-14T16:42:49.248Z,19.85
2023-05-14T16:45:19.784Z,19.65
2023-05-14T16:47:52.962Z,19.67
2023-05-14T16:50:26.565Z,19.54
2023-05-14T16:52:57.152Z,19.44
2023-05-14T16:55:27.772Z,19.41
2023-05-14T16:57:58.349Z,19.33
2023-05-14T17:00:31.130Z,19.28
2023-05-14T17:03:02.633Z,19.20
2023-05-14T17:05:35.701Z,19.14
2023-05-14T17:08:06.144Z,18.91
2023-05-14T17:10:36.520Z,18.96
2023-05-14T17:13:06.740Z,18.89
2023-05-14T17:15:40.503Z,18.86
2023-05-14T17:18:12.309Z,18.79
2023-05-14T17:20:45.451Z,18.83
2023-05-14T17:23:16.165Z,18.80
2023-05-14T17:25:46.577Z,18.76
2023-05-14T17:28:16.789Z,18.69
2023-05-14T17:30:49.552Z,18.70
2023-05-14T17:33:20.154Z,18.64
2023-05-14T17:35:52.997Z,18.66
2023-05-14T17:38:23.649Z,18.66
2023-05-14T17:40:54.624Z,18.65
2023-05-14T17:43:26.836Z,18.58
2023-05-14T17:45:57.357Z,18.47
2023-05-14T17:48:27.880Z,18.38
2023-05-14T17:51:00.998Z,18.37
2023-05-14T17:53:31.491Z,18.25
2023-05-14T17:56:02.128Z,18.33
2023-05-14T17:58:32.747Z,18.33
2023-05-14T18:01:06.252Z,18.09
2023-05-14T18:03:37.088Z,18.12
2023-05-14T18:06:10.220Z,18.10
2023-05-14T18:08:41.809Z,18.05
2023-05-14T18:11:12.384Z,17.90
2023-05-14T18:13:42.720Z,17.93
2023-05-14T18:16:13.522Z,18.07
2023-05-14T18:18:44.456Z,18.08
2023-05-14T18:21:18.031Z,17.99
2023-05-14T18:23:51.172Z,18.04
2023-05-14T18:26:23.610Z,18.01
2023-05-14T18:28:54.783Z,18.05
2023-05-14T18:31:28.084Z,17.88
2023-05-14T18:33:58.990Z,17.75
2023-05-14T18:36:33.809Z,17.78
2023-05-14T18:39:04.279Z,17.85
2023-05-14T18:41:34.533Z,17.93
2023-05-14T18:44:05.195Z,17.90
2023-05-14T18:46:35.548Z,17.84
2023-05-14T18:49:05.815Z,17.84
2023-05-14T18:51:40.369Z,17.80
2023-05-14T18:54:11.524Z,17.85
2023-05-14T18:56:46.771Z,17.82
2023-05-14T18:59:18.089Z,17.78
2023-05-14T19:01:51.636Z,17.66
2023-05-14T19:04:22.104Z,17.77
2023-05-14T19:06:55.921Z,17.57
2023-05-14T19:09:27.081Z,17.57
2023-05-14T19:11:57.820Z,17.70
2023-05-14T19:14:31.376Z,17.64
2023-05-14T19:17:01.903Z,17.43
2023-05-14T19:19:32.226Z,17.63
2023-05-14T19:22:05.980Z,17.59
2023-05-14T19:24:40.845Z,17.37
2023-05-14T19:27:14.031Z,17.52
2023-05-14T19:29:44.704Z,17.55
2023-05-14T19:32:14.868Z,17.54
2023-05-14T19:34:45.426Z,17.49
2023-05-14T19:37:18.265Z,17.48
2023-05-14T19:39:50.330Z,17.56
2023-05-14T19:42:21.110Z,17.57
2023-05-14T19:44:51.664Z,17.43
2023-05-14T19:47:21.940Z,17.18
2023-05-14T19:49:53.903Z,17.52
2023-05-14T19:52:29.383Z,17.44
2023-05-14T19:55:00.137Z,17.48
2023-05-14T19:57:31.527Z,17.46
2023-05-14T20:00:03.028Z,17.47
2023-05-14T20:02:44.160Z,17.49
2023-05-14T20:05:15.766Z,17.47
2023-05-14T20:07:49.567Z,17.35
2023-05-14T20:10:20.415Z,17.38
2023-05-14T20:12:52.984Z,17.39
2023-05-14T20:15:23.694Z,17.39
2023-05-14T20:17:54.228Z,17.34
2023-05-14T20:20:29.708Z,17.20
2023-05-14T20:23:05.241Z,17.32
2023-05-14T20:25:36.174Z,17.32
2023-05-14T20:28:06.711Z,17.29
2023-05-14T20:30:37.059Z,17.31
2023-05-14T20:33:07.734Z,17.30
2023-05-14T20:35:38.330Z,17.33
2023-05-14T20:38:13.015Z,17.36
2023-05-14T20:40:44.716Z,17.32
2023-05-14T20:43:14.911Z,17.19
2023-05-14T20:45:45.599Z,17.29
2023-05-14T20:48:17.834Z,17.22
2023-05-14T20:50:48.715Z,17.33
2023-05-14T20:53:21.895Z,17.33
2023-05-14T20:55:52.590Z,17.32
2023-05-14T20:58:23.872Z,17.26
2023-05-14T21:00:56.008Z,17.26
2023-05-14T21:03:31.575Z,17.28
2023-05-14T21:06:03.201Z,17.27
2023-05-14T21:08:39.717Z,17.21
2023-05-14T21:11:10.661Z,17.28
2023-05-14T21:13:41.528Z,17.26
2023-05-14T21:16:12.996Z,17.21
2023-05-14T21:18:43.369Z,17.24
2023-05-14T21:21:13.892Z,17.01
2023-05-14T21:23:46.918Z,17.14
2023-05-14T21:26:17.156Z,17.15
2023-05-14T21:28:49.665Z,17.21
2023-05-14T21:31:20.154Z,17.24
2023-05-14T21:33:51.393Z,17.29
2023-05-14T21:36:21.894Z,17.28
2023-05-14T21:38:55.813Z,17.28
2023-05-14T21:41:29.631Z,17.16
2023-05-14T21:43:59.811Z,17.23
2023-05-14T21:46:30.334Z,17.21
2023-05-14T21:49:00.605Z,17.14
2023-05-14T21:51:32.411Z,17.23
2023-05-14T21:54:07.585Z,17.18
2023-05-14T21:56:39.275Z,17.20
2023-05-14T21:59:09.517Z,17.21
2023-05-14T22:01:56.152Z,17.16
2023-05-14T22:04:30.775Z,17.09
2023-05-14T22:07:00.995Z,17.16
2023-05-14T22:09:33.849Z,17.19
2023-05-14T22:12:04.155Z,17.18
2023-05-14T22:14:34.418Z,17.22
2023-05-14T22:17:04.974Z,17.18
2023-05-14T22:19:35.187Z,17.12
2023-05-14T22:22:18.232Z,17.07
2023-05-14T22:24:51.670Z,17.21
2023-05-14T22:27:22.128Z,17.13
2023-05-14T22:29:52.625Z,17.13
2023-05-14T22:32:23.062Z,17.12
2023-05-14T22:34:56.473Z,17.08
2023-05-14T22:37:27.395Z,17.11
2023-05-14T22:40:02.881Z,17.15
2023-05-14T22:42:33.292Z,16.98
2023-05-14T22:45:03.827Z,17.17
2023-05-14T22:47:34.202Z,17.16
2023-05-14T22:50:07.953Z,17.11
2023-05-14T22:52:38.848Z,17.15
2023-05-14T22:55:13.021Z,17.17
2023-05-14T22:57:43.436Z,17.13
2023-05-14T23:00:17.800Z,16.95
2023-05-14T23:02:48.431Z,16.92
2023-05-14T23:05:18.858Z,17.10
2023-05-14T23:07:49.708Z,17.09
2023-05-14T23:10:25.759Z,16.99
2023-05-14T23:12:57.619Z,17.00
2023-05-14T23:15:28.120Z,16.98
2023-05-14T23:17:58.695Z,16.98
2023-05-14T23:20:29.141Z,17.01
2023-05-14T23:22:59.336Z,17.02
2023-05-14T23:25:32.426Z,16.94
2023-05-14T23:28:03.386Z,17.00
2023-05-14T23:30:33.832Z,16.98
2023-05-14T23:33:04.148Z,17.01
2023-05-14T23:35:34.427Z,16.94
2023-05-14T23:38:04.801Z,17.00
2023-05-14T23:40:38.051Z,17.00
2023-05-14T23:43:08.852Z,16.92
2023-05-14T23:45:39.207Z,16.69
2023-05-14T23:48:09.868Z,16.93
2023-05-14T23:50:40.383Z,16.91
2023-05-14T23:53:10.725Z,16.95
2023-05-14T23:55:43.647Z,16.95
2023-05-14T23:58:16.364Z,16.92
